Ogden, UT (84401)

12:18 AM MDT on September 21, 2014 (GMT -0600)
Harrisville 1411 | Change Station
CLOSE
Current Station
Personal Weather Station
Location: Ogden, UT
Elevation: 4310 ft
Nearby Weather Stations

Elev 4310 ft 41.26 °N, 111.98 °W | Updated 3 minutes ago

Partly Cloudy
Partly Cloudy
71.2 °F
Feels Like 76 °F
N
6.0
Wind Variable Wind from SSE
Gusts 10.0 mph

Today
High -- | Low -- °F
--% Chance of Precip.
Yesterday
High -- | Low -- °F
Precip. -- in
7:14 AM 7:26 PM
Waning Crescent, 8% visible
Pressure 29.91 in
Visibility 10.0 miles
Clouds Clear
Heat Index 76 °F
Dew Point 40 °F
Humidity 32%
Rainfall 0.00 in
Snow Depth Not available.
UV 0 out of 12
Pollen 5.30 out of 12
Ozone Good
PM2.5 Moderate
Flu Activity Not available.
METAR KOGD 210553Z 17013G16KT 10SM CLR 23/02 A3008 RMK AO2 SLP129 T02280022 10289 20206 53003

More Conditions Fewer Conditions

Pressure 29.91 in
Visibility 10.0 miles
Clouds Clear
Heat Index 76 °F
Dew Point 40 °F
Humidity 32%
Rainfall 0.00 in
Snow Depth Not available.
UV 0 out of 12
Pollen 5.30 out of 12
Ozone Good
PM2.5 Moderate
Flu Activity Not available.
METAR KOGD 210553Z 17013G16KT 10SM CLR 23/02 A3008 RMK AO2 SLP129 T02280022 10289 20206 53003

More Conditions Fewer Conditions

10-Day Weather Forecast

Almanac

Astronomy

Sep. 21, 2014 Rise Set
Actual Time 7:14 AM MDT 7:26 PM MDT
Civil Twilight 6:47 AM MDT 7:54 PM MDT
Nautical Twilight 6:14 AM MDT 8:26 PM MDT
Astronomical Twilight 5:41 AM MDT 8:59 PM MDT
Moon 4:50 AM MDT 6:05 PM MDT
Length of Visible Light 13h 07m
Length of Day
12h 12m
Tomorrow will be 2m 44s shorter.
Waning Crescent, 8% of the Moon is Illuminated
Today
Waning Crescent
Sep 24
New
Oct 1
First Quarter
Oct 8
Full
Oct 15
Last Quarter

Today's Extremes

State Highs State Lows

Community

WunderPhotos

Upload Photos

1,755,098 photos uploaded!

Nearby

Air Quality

  Air Quality AQ Index Pollutant
Yesterday Good
PM10
Yesterday Good
OZONE
Current Moderate
PM2.5
Current Good
OZONE
Saturday Moderate
OZONE
Sunday Good
OZONE
Monday Good
OZONE

Snow Depth

Station Depth Elevation
Strawberry Divide 0 in 8400 ft
Chepeta 0 in 10300 ft
Tony Grove Lake 0 in 8400 ft
Long Valley Jct 1 in 7360 ft
Temple Fork 0 in 7406 ft

Earthquake Activity

City Distance Mag. Time & Date
No recent earthquake activity has been reported nearby.
Minimum magnitude displayed is 2.5.

Coastal Water Temperatures

Place Temperature
No Stations Reporting

Nearby Weather Stations